Time;durP1;ratioP1;P1;durP2;ratioP2;P2;SDS_P1;SDS_P2;PMS_P1;PMS_P2;Temp;Humidity;BMP_temperature;BMP_pressure;BME280_temperature;BME280_humidity;BME280_pressure;Samples;Min_cycle;Max_cycle;Signal;HPM_P1;HPM_P2
2023/03/07 00:01:30;;;;;;;10.10;6.15;;;5.80;99.90;;;;;;5058091;28;20029;-61
2023/03/07 00:03:57;;;;;;;12.18;6.50;;;5.70;99.90;;;;;;5058883;28;20021;-61
2023/03/07 00:06:23;;;;;;;10.98;6.03;;;5.70;99.90;;;;;;5058766;28;20071;-62
2023/03/07 00:09:00;;;;;;;11.80;6.32;;;5.80;99.90;;;;;;5041433;28;20396;-61
2023/03/07 00:11:27;;;;;;;11.02;7.00;;;5.90;99.90;;;;;;5058759;28;20051;-61
2023/03/07 00:13:54;;;;;;;10.70;6.28;;;5.90;99.90;;;;;;5058681;28;20037;-61
2023/03/07 00:16:22;;;;;;;10.10;6.00;;;5.90;99.90;;;;;;5041347;28;20104;-61
2023/03/07 00:18:48;;;;;;;12.38;5.80;;;5.80;99.90;;;;;;5057913;28;20113;-61
2023/03/07 00:21:17;;;;;;;13.90;6.75;;;5.70;99.90;;;;;;5058463;28;20301;-61
2023/03/07 00:23:44;;;;;;;9.93;5.32;;;5.70;99.90;;;;;;5058453;28;20032;-60
2023/03/07 00:26:22;;;;;;;7.57;5.50;;;5.60;99.90;;;;;;5041033;28;20028;-61
2023/03/07 00:28:49;;;;;;;8.50;5.75;;;5.60;99.90;;;;;;5057696;28;20051;-60
2023/03/07 00:31:16;;;;;;;11.27;6.50;;;5.70;99.90;;;;;;5058405;28;20411;-62
2023/03/07 00:33:42;;;;;;;9.85;5.90;;;5.70;99.90;;;;;;5058269;28;20059;-62
2023/03/07 00:36:14;;;;;;;11.25;5.35;;;5.90;99.90;;;;;;5058166;28;20036;-62
2023/03/07 00:38:42;;;;;;;10.63;5.40;;;5.70;99.90;;;;;;5057431;28;20385;-63
2023/03/07 00:41:12;;;;;;;10.35;6.03;;;5.80;99.90;;;;;;5058162;28;20090;-62
2023/03/07 00:43:38;;;;;;;7.95;5.28;;;5.70;99.90;;;;;;5058137;28;20031;-62
2023/03/07 00:46:04;;;;;;;8.40;5.25;;;5.60;99.90;;;;;;5057132;28;20408;-60
2023/03/07 00:48:33;;;;;;;9.98;4.68;;;5.70;99.90;;;;;;5057086;28;20041;-59
2023/03/07 00:51:00;;;;;;;9.85;5.15;;;5.70;99.90;;;;;;5057249;28;20108;-60
2023/03/07 00:53:26;;;;;;;10.18;5.47;;;5.60;99.90;;;;;;5056913;28;20032;-60
2023/03/07 00:55:57;;;;;;;6.10;4.60;;;5.60;99.90;;;;;;5056911;28;20033;-61
2023/03/07 00:58:25;;;;;;;10.20;4.78;;;5.50;99.90;;;;;;5057073;28;20107;-60
2023/03/07 01:00:51;;;;;;;11.00;5.18;;;5.50;99.90;;;;;;5057739;28;20064;-59
2023/03/07 01:03:18;;;;;;;9.50;5.15;;;5.60;99.90;;;;;;5057689;28;20025;-60
2023/03/07 01:05:45;;;;;;;7.20;5.00;;;5.50;99.90;;;;;;5056973;28;20044;-62
2023/03/07 01:08:11;;;;;;;7.80;4.85;;;5.70;99.90;;;;;;5057622;28;20029;-61
2023/03/07 01:10:38;;;;;;;9.13;5.40;;;5.80;99.90;;;;;;5056789;28;20029;-61
2023/03/07 01:13:04;;;;;;;7.13;4.50;;;5.80;99.90;;;;;;5056791;28;20037;-63
2023/03/07 01:15:30;;;;;;;8.75;4.88;;;5.70;99.90;;;;;;5056722;28;20045;-60
2023/03/07 01:17:56;;;;;;;8.43;5.07;;;5.70;99.90;;;;;;5056782;28;20071;-60
2023/03/07 01:20:22;;;;;;;8.60;5.28;;;5.80;99.90;;;;;;5057372;28;20056;-60
2023/03/07 01:22:48;;;;;;;11.60;5.60;;;5.70;99.90;;;;;;5057373;28;20120;-60
2023/03/07 01:25:14;;;;;;;8.65;5.43;;;5.60;99.90;;;;;;5057347;28;20120;-60
2023/03/07 01:27:40;;;;;;;12.30;5.82;;;5.50;99.90;;;;;;5057336;28;20316;-61
2023/03/07 01:30:08;;;;;;;10.68;5.80;;;5.50;99.90;;;;;;5056472;28;20029;-61
2023/03/07 01:32:36;;;;;;;10.73;5.72;;;5.50;99.90;;;;;;5056418;28;20036;-60
2023/03/07 01:35:01;;;;;;;11.05;5.47;;;5.60;99.90;;;;;;5056311;28;20098;-60
2023/03/07 01:37:28;;;;;;;9.90;5.97;;;5.50;99.90;;;;;;5057158;28;20033;-60
2023/03/07 01:39:54;;;;;;;12.30;5.97;;;5.40;99.90;;;;;;5057156;28;20040;-60
2023/03/07 01:42:21;;;;;;;11.38;5.75;;;5.40;99.90;;;;;;5057133;28;20029;-60
2023/03/07 01:45:04;;;;;;;13.35;6.85;;;5.40;99.90;;;;;;5056234;28;20033;-60
2023/03/07 01:47:56;;;;;;;10.80;6.10;;;5.40;99.90;;;;;;5056852;28;20041;-61
2023/03/07 01:50:22;;;;;;;10.55;6.50;;;5.40;99.90;;;;;;5023250;28;20292;-60
2023/03/07 01:52:55;;;;;;;10.55;6.30;;;5.40;99.90;;;;;;5056404;28;20396;-60
2023/03/07 01:55:33;;;;;;;12.60;7.22;;;5.40;99.90;;;;;;5055877;28;20041;-60
2023/03/07 01:58:11;;;;;;;9.32;5.80;;;5.50;99.90;;;;;;5056164;28;20025;-67
2023/03/07 02:00:39;;;;;;;11.40;6.03;;;5.60;99.90;;;;;;5056330;28;20520;-60
2023/03/07 02:03:19;;;;;;;12.93;5.85;;;5.70;99.90;;;;;;5056266;28;20029;-60
2023/03/07 02:05:55;;;;;;;10.93;6.53;;;5.60;99.90;;;;;;5056447;28;20025;-60
2023/03/07 02:08:25;;;;;;;11.70;6.30;;;5.60;99.90;;;;;;5056805;28;20297;-60
2023/03/07 02:10:51;;;;;;;9.93;6.55;;;5.60;99.90;;;;;;5056769;28;20079;-64
2023/03/07 02:13:17;;;;;;;11.40;7.18;;;5.60;99.90;;;;;;5056747;28;20041;-61
2023/03/07 02:15:43;;;;;;;12.85;7.15;;;5.70;99.90;;;;;;5056802;28;20043;-61
2023/03/07 02:18:15;;;;;;;10.40;7.50;;;5.60;99.90;;;;;;5055861;28;20401;-61
2023/03/07 02:21:15;;;;;;;10.55;6.68;;;5.60;99.90;;;;;;5056682;28;20044;-60
2023/03/07 02:23:52;;;;;;;14.20;7.55;;;5.60;99.90;;;;;;5056656;28;20108;-61
2023/03/07 02:26:26;;;;;;;10.63;6.45;;;5.50;99.90;;;;;;5055878;28;20029;-61
2023/03/07 02:28:53;;;;;;;12.23;6.97;;;5.70;99.90;;;;;;5055891;28;20041;-60
2023/03/07 02:31:19;;;;;;;8.90;6.55;;;5.60;99.90;;;;;;5056551;28;20067;-61
2023/03/07 02:33:44;;;;;;;12.02;7.15;;;5.50;99.90;;;;;;5039224;28;20126;-60
2023/03/07 02:36:16;;;;;;;10.98;6.75;;;5.40;99.90;;;;;;5055659;28;20110;-61
2023/03/07 02:38:59;;;;;;;10.80;6.72;;;5.40;99.90;;;;;;5041667;28;20114;-61
2023/03/07 02:41:30;;;;;;;11.25;6.80;;;5.40;99.90;;;;;;5055764;28;20029;-61
2023/03/07 02:43:59;;;;;;;;;;;5.50;99.90;;;;;;5056162;28;20044;-61
2023/03/07 02:46:25;;;;;;;10.93;6.43;;;5.40;99.90;;;;;;5055699;28;19934;-60
2023/03/07 02:48:50;;;;;;;10.52;6.40;;;5.40;99.90;;;;;;5056644;28;20036;-60
2023/03/07 02:51:17;;;;;;;9.93;6.75;;;5.50;99.90;;;;;;5039058;28;20056;-61
2023/03/07 02:53:45;;;;;;;12.02;7.07;;;5.50;99.90;;;;;;5055406;28;20041;-61
2023/03/07 02:56:11;;;;;;;14.20;7.00;;;5.40;99.90;;;;;;5055536;28;20068;-60
2023/03/07 02:58:37;;;;;;;11.48;6.65;;;5.40;99.90;;;;;;5056408;28;20048;-60
2023/03/07 03:01:03;;;;;;;15.23;8.18;;;5.40;99.90;;;;;;5056302;28;20033;-60
2023/03/07 03:03:30;;;;;;;14.77;8.20;;;5.40;99.90;;;;;;5056420;28;20039;-60
2023/03/07 03:05:56;;;;;;;15.95;8.63;;;5.40;99.90;;;;;;5056311;28;20036;-60
2023/03/07 03:08:22;;;;;;;14.10;8.23;;;5.40;99.90;;;;;;5056261;28;20071;-60
2023/03/07 03:10:53;;;;;;;13.52;8.23;;;5.40;99.90;;;;;;5055638;28;20060;-60
2023/03/07 03:13:20;;;;;;;11.20;7.65;;;5.50;99.90;;;;;;5056509;28;20059;-60
2023/03/07 03:15:46;;;;;;;18.38;9.45;;;5.50;99.90;;;;;;5055413;28;20026;-60
2023/03/07 03:18:12;;;;;;;13.52;8.77;;;5.40;99.90;;;;;;5056261;28;20029;-60
2023/03/07 03:20:42;;;;;;;14.35;8.27;;;5.60;99.90;;;;;;5059858;28;20037;-60
2023/03/07 03:23:08;;;;;;;14.38;8.73;;;5.60;99.90;;;;;;5059909;28;20053;-60
2023/03/07 03:25:35;;;;;;;15.18;8.95;;;5.60;99.90;;;;;;5058740;28;20102;-60
2023/03/07 03:28:02;;;;;;;14.45;8.70;;;5.50;99.90;;;;;;5058775;28;20404;-60
2023/03/07 03:30:31;;;;;;;12.98;8.88;;;5.60;99.90;;;;;;5058758;28;20044;-60
2023/03/07 03:32:58;;;;;;;14.93;8.82;;;5.60;99.90;;;;;;5058941;28;20456;-60
2023/03/07 03:35:26;;;;;;;13.43;8.52;;;5.70;99.90;;;;;;5058575;28;20313;-61
2023/03/07 03:37:55;;;;;;;13.02;8.73;;;5.60;99.90;;;;;;5042331;28;20029;-60
2023/03/07 03:40:21;;;;;;;14.50;9.18;;;5.50;99.90;;;;;;5058640;28;20084;-60
2023/03/07 03:42:47;;;;;;;15.68;9.73;;;5.50;99.90;;;;;;5059267;28;20048;-60
2023/03/07 03:45:15;;;;;;;17.15;8.95;;;5.60;99.90;;;;;;5058545;28;20041;-60
2023/03/07 03:47:41;;;;;;;13.15;9.10;;;5.50;99.90;;;;;;5059154;28;20052;-60
2023/03/07 03:50:08;;;;;;;14.50;9.38;;;5.60;99.90;;;;;;5041756;28;20037;-60
2023/03/07 03:52:35;;;;;;;16.83;9.40;;;5.60;99.90;;;;;;5041943;28;20049;-60
2023/03/07 03:55:01;;;;;;;15.52;9.98;;;5.60;99.90;;;;;;5058061;28;20049;-60
2023/03/07 03:57:27;;;;;;;17.40;9.82;;;5.60;99.90;;;;;;5059288;28;20043;-60
2023/03/07 03:59:56;;;;;;;17.17;10.15;;;5.70;99.90;;;;;;5058164;28;20032;-60
2023/03/07 04:02:22;;;;;;;19.10;11.35;;;5.70;99.90;;;;;;5042099;28;20041;-60
2023/03/07 04:04:48;;;;;;;17.98;11.40;;;5.60;99.90;;;;;;5042249;28;20117;-60
2023/03/07 04:07:14;;;;;;;17.48;11.65;;;5.60;99.90;;;;;;5058869;28;20112;-60
2023/03/07 04:09:40;;;;;;;18.70;12.38;;;5.50;99.90;;;;;;5058388;28;20029;-61
2023/03/07 04:12:07;;;;;;;19.17;12.45;;;5.40;99.90;;;;;;5058030;28;20033;-61
2023/03/07 04:14:33;;;;;;;20.60;12.52;;;5.30;99.90;;;;;;5057900;28;20029;-61
2023/03/07 04:16:58;;;;;;;20.00;12.13;;;5.40;99.90;;;;;;5058620;28;20116;-62
2023/03/07 04:19:24;;;;;;;20.30;11.95;;;5.30;99.90;;;;;;5058542;28;20028;-61
2023/03/07 04:21:50;;;;;;;22.33;12.35;;;5.30;99.90;;;;;;5057837;28;20029;-61
2023/03/07 04:24:16;;;;;;;19.67;12.30;;;5.30;99.90;;;;;;5057719;28;20362;-61
2023/03/07 04:26:42;;;;;;;21.50;12.88;;;5.30;99.90;;;;;;5057408;28;20132;-63
2023/03/07 04:29:09;;;;;;;23.17;12.13;;;5.40;99.90;;;;;;5057594;28;20068;-61
2023/03/07 04:31:40;;;;;;;20.03;12.03;;;5.40;99.90;;;;;;5041875;28;20040;-61
2023/03/07 04:34:07;;;;;;;22.08;12.48;;;5.30;99.90;;;;;;5058595;28;20032;-62
2023/03/07 04:36:33;;;;;;;25.00;13.10;;;5.30;99.90;;;;;;5057432;28;20033;-61
2023/03/07 04:38:59;;;;;;;21.50;13.35;;;5.40;99.90;;;;;;5040845;28;20025;-61
2023/03/07 04:41:29;;;;;;;21.63;12.75;;;5.40;99.90;;;;;;5057688;28;20048;-61
2023/03/07 04:43:59;;;;;;;21.60;13.35;;;5.60;99.90;;;;;;5057427;28;20367;-61
2023/03/07 04:46:25;;;;;;;18.80;11.73;;;5.60;99.90;;;;;;5057331;28;20029;-61
2023/03/07 04:48:52;;;;;;;22.52;12.27;;;5.50;99.90;;;;;;5057298;28;20037;-61
2023/03/07 04:51:19;;;;;;;18.63;12.60;;;5.30;99.90;;;;;;5040744;28;20045;-61
2023/03/07 04:53:49;;;;;;;19.55;11.68;;;5.30;99.90;;;;;;5057037;28;20045;-61
2023/03/07 04:56:16;;;;;;;20.92;12.63;;;5.30;99.90;;;;;;5057772;28;20116;-62
2023/03/07 04:58:43;;;;;;;16.55;11.50;;;5.40;99.90;;;;;;5057990;28;20033;-61
2023/03/07 05:01:09;;;;;;;20.80;11.98;;;5.40;99.90;;;;;;5057724;28;20033;-61
2023/03/07 05:03:35;;;;;;;25.33;13.48;;;5.40;99.90;;;;;;5056971;28;20025;-63
2023/03/07 05:06:07;;;;;;;20.90;12.85;;;5.40;99.90;;;;;;5040399;28;20282;-62
2023/03/07 05:08:34;;;;;;;18.58;11.95;;;5.40;99.90;;;;;;5057026;28;20036;-63
2023/03/07 05:11:00;;;;;;;21.58;12.63;;;5.40;99.90;;;;;;5057075;28;20293;-62
2023/03/07 05:13:27;;;;;;;21.55;12.82;;;5.40;99.90;;;;;;5057759;28;20021;-62
2023/03/07 05:15:55;;;;;;;19.20;12.55;;;5.30;99.90;;;;;;5057616;28;20044;-61
2023/03/07 05:18:22;;;;;;;23.88;12.68;;;5.30;99.90;;;;;;5040236;28;20339;-62
2023/03/07 05:20:49;;;;;;;19.67;12.73;;;5.30;99.90;;;;;;5056510;28;20058;-61
2023/03/07 05:23:16;;;;;;;20.98;12.05;;;5.30;99.90;;;;;;5056745;28;20308;-62
2023/03/07 05:25:42;;;;;;;21.02;12.38;;;5.30;99.90;;;;;;5057490;28;20037;-61
2023/03/07 05:28:08;;;;;;;18.35;11.73;;;5.30;99.90;;;;;;5056501;28;20043;-62
2023/03/07 05:30:34;;;;;;;18.02;11.15;;;5.30;99.90;;;;;;5057221;28;20037;-61
2023/03/07 05:33:00;;;;;;;22.80;12.60;;;5.30;99.90;;;;;;5056468;28;20037;-61
2023/03/07 05:35:26;;;;;;;18.45;11.55;;;5.20;99.90;;;;;;5056347;28;20126;-61
2023/03/07 05:37:54;;;;;;;18.00;11.38;;;5.20;99.90;;;;;;5040163;28;20131;-61
2023/03/07 05:40:21;;;;;;;18.60;11.57;;;5.20;99.90;;;;;;5056309;28;20029;-61
2023/03/07 05:42:48;;;;;;;20.42;11.48;;;5.30;99.90;;;;;;5055799;28;20053;-61
2023/03/07 05:45:14;;;;;;;18.42;11.65;;;5.20;99.90;;;;;;5056021;28;20242;-61
2023/03/07 05:47:41;;;;;;;16.50;10.60;;;5.20;99.90;;;;;;5056492;28;20115;-62
2023/03/07 05:50:09;;;;;;;21.42;12.05;;;5.20;99.90;;;;;;5056802;28;20084;-62
2023/03/07 05:52:36;;;;;;;20.23;11.25;;;5.20;99.90;;;;;;5056076;28;20077;-62
2023/03/07 05:55:03;;;;;;;18.08;11.00;;;5.20;99.90;;;;;;5022941;28;20040;-61
2023/03/07 05:57:30;;;;;;;17.08;10.52;;;5.30;99.90;;;;;;5055973;28;20067;-60
2023/03/07 05:59:56;;;;;;;16.05;10.82;;;5.20;99.90;;;;;;5055997;28;20068;-60
2023/03/07 06:02:22;;;;;;;17.27;11.20;;;5.30;99.90;;;;;;5055935;28;20036;-62
2023/03/07 06:04:47;;;;;;;16.52;10.88;;;5.30;99.90;;;;;;5056992;28;20029;-61
2023/03/07 06:07:14;;;;;;;17.25;10.48;;;5.30;99.90;;;;;;5056629;28;20029;-61
2023/03/07 06:09:44;;;;;;;18.70;11.27;;;5.20;99.90;;;;;;5055924;28;20407;-61
2023/03/07 06:12:10;;;;;;;15.43;10.95;;;5.20;99.90;;;;;;5055638;28;20029;-60
2023/03/07 06:14:36;;;;;;;18.45;10.73;;;5.20;99.90;;;;;;5055782;28;20036;-66
2023/03/07 06:17:05;;;;;;;16.73;10.15;;;5.30;99.90;;;;;;5055771;28;20029;-63
2023/03/07 06:19:32;;;;;;;14.38;9.95;;;5.30;99.90;;;;;;5055762;28;20040;-63
2023/03/07 06:21:59;;;;;;;15.65;10.32;;;5.30;99.90;;;;;;5055930;28;20029;-61
2023/03/07 06:24:25;;;;;;;17.80;10.05;;;5.50;99.90;;;;;;5055742;28;20036;-62
2023/03/07 06:26:51;;;;;;;14.48;8.90;;;5.40;99.90;;;;;;5055666;28;20096;-62
2023/03/07 06:29:20;;;;;;;14.93;9.02;;;5.40;99.90;;;;;;5039429;28;20047;-62
2023/03/07 06:31:46;;;;;;;16.50;9.15;;;5.40;99.90;;;;;;5039285;28;20328;-69
2023/03/07 06:34:12;;;;;;;13.18;8.50;;;5.50;99.90;;;;;;5055949;28;20115;-64
2023/03/07 06:36:38;;;;;;;15.90;8.90;;;5.50;99.90;;;;;;5055641;28;20029;-64
2023/03/07 06:39:04;;;;;;;13.35;8.20;;;5.60;99.90;;;;;;5039039;28;20098;-66
2023/03/07 06:41:30;;;;;;;12.80;8.13;;;5.60;99.90;;;;;;5055789;28;20029;-65
2023/03/07 06:43:59;;;;;;;12.18;8.00;;;5.60;99.90;;;;;;5055712;28;20079;-66
2023/03/07 06:46:28;;;;;;;11.15;7.78;;;5.70;99.90;;;;;;5039416;28;20350;-67
2023/03/07 06:48:55;;;;;;;14.95;8.10;;;5.70;99.90;;;;;;5022627;28;20087;-66
2023/03/07 06:51:22;;;;;;;12.52;7.15;;;5.70;99.90;;;;;;5056286;28;20040;-67
2023/03/07 06:53:48;;;;;;;9.13;7.22;;;5.70;99.90;;;;;;5039662;28;20045;-67
2023/03/07 06:56:14;;;;;;;11.40;7.65;;;5.70;99.90;;;;;;5026096;28;20037;-68
2023/03/07 06:58:41;;;;;;;14.15;8.00;;;5.80;99.90;;;;;;5059437;28;20037;-68
2023/03/07 07:01:20;;;;;;;12.20;7.95;;;5.80;99.90;;;;;;5059363;28;20036;-68
2023/03/07 07:03:49;;;;;;;16.77;7.90;;;5.90;99.90;;;;;;5042898;28;20060;-65
2023/03/07 07:06:15;;;;;;;14.90;9.23;;;6.00;99.90;;;;;;5058998;28;20037;-70
2023/03/07 07:08:41;;;;;;;17.63;9.15;;;6.00;99.90;;;;;;5059872;28;20039;-64
2023/03/07 07:11:08;;;;;;;14.40;9.30;;;6.10;99.90;;;;;;5059004;28;20041;-65
2023/03/07 07:13:34;;;;;;;16.58;9.57;;;6.20;99.90;;;;;;5058925;28;20355;-65
2023/03/07 07:16:07;;;;;;;17.02;9.48;;;6.20;99.90;;;;;;5058614;28;20133;-63
2023/03/07 07:18:35;;;;;;;15.20;9.52;;;6.10;99.90;;;;;;5058630;28;20029;-63
2023/03/07 07:21:04;;;;;;;14.73;9.02;;;6.00;99.90;;;;;;5058698;28;20083;-63
2023/03/07 07:23:30;;;;;;;15.80;9.52;;;6.40;99.90;;;;;;5058811;28;20037;-62
2023/03/07 07:25:57;;;;;;;18.80;10.75;;;6.10;99.90;;;;;;5042240;28;20044;-63
2023/03/07 07:28:23;;;;;;;16.52;10.68;;;6.20;99.90;;;;;;5058900;28;20082;-66
2023/03/07 07:30:50;;;;;;;16.88;10.40;;;6.10;99.90;;;;;;5059467;28;20107;-62
2023/03/07 07:33:19;;;;;;;15.68;9.43;;;6.10;99.90;;;;;;5042235;28;20052;-62
2023/03/07 07:35:48;;;;;;;15.35;9.90;;;5.90;99.90;;;;;;5058532;28;20182;-64
2023/03/07 07:38:14;;;;;;;14.73;9.40;;;5.90;99.90;;;;;;5059779;28;20434;-64
2023/03/07 07:40:41;;;;;;;16.05;8.82;;;5.90;99.90;;;;;;5042130;28;20029;-65
2023/03/07 07:43:15;;;;;;;16.27;8.55;;;5.80;99.90;;;;;;5058534;28;20401;-63
2023/03/07 07:45:46;;;;;;;10.63;6.68;;;5.70;99.90;;;;;;5058409;28;20112;-63
2023/03/07 07:48:15;;;;;;;7.78;5.55;;;5.60;99.90;;;;;;5058343;28;20095;-62
2023/03/07 07:50:41;;;;;;;7.43;5.13;;;5.40;99.90;;;;;;5058187;28;20056;-63
2023/03/07 07:53:07;;;;;;;8.20;4.72;;;5.50;99.90;;;;;;5058103;28;20032;-61
2023/03/07 07:55:33;;;;;;;8.50;4.85;;;5.40;99.90;;;;;;5058696;28;20375;-61
2023/03/07 07:57:59;;;;;;;5.50;4.68;;;5.40;99.90;;;;;;5058226;28;20048;-67
2023/03/07 08:00:26;;;;;;;8.43;6.00;;;5.40;99.90;;;;;;5058159;28;20068;-60
2023/03/07 08:02:51;;;;;;;7.82;5.35;;;5.40;99.90;;;;;;5059333;28;20109;-62
2023/03/07 08:05:19;;;;;;;12.38;6.65;;;5.30;99.90;;;;;;5057600;28;20095;-64
2023/03/07 08:07:45;;;;;;;8.35;6.53;;;5.40;99.90;;;;;;5058793;28;20443;-61
2023/03/07 08:10:16;;;;;;;9.05;6.05;;;5.40;99.90;;;;;;5058693;28;20120;-61
2023/03/07 08:12:43;;;;;;;7.13;6.43;;;5.60;99.90;;;;;;5057986;28;20116;-63
2023/03/07 08:15:10;;;;;;;8.27;5.70;;;5.50;99.90;;;;;;5058506;28;20041;-61
2023/03/07 08:17:36;;;;;;;7.45;6.05;;;5.60;99.90;;;;;;5059262;28;20021;-61
2023/03/07 08:20:07;;;;;;;7.20;6.07;;;5.60;99.90;;;;;;5058011;28;20036;-61
2023/03/07 08:22:34;;;;;;;7.93;5.82;;;5.60;99.90;;;;;;5058565;28;20068;-62
2023/03/07 08:24:59;;;;;;;7.10;5.38;;;5.70;99.90;;;;;;5058445;28;20349;-61
2023/03/07 08:27:27;;;;;;;7.97;5.78;;;5.70;99.90;;;;;;5058431;28;20029;-60
2023/03/07 08:29:53;;;;;;;9.07;5.95;;;5.80;99.90;;;;;;5057682;28;20032;-61
2023/03/07 08:32:19;;;;;;;8.75;6.05;;;5.70;99.90;;;;;;5058290;28;20021;-60
2023/03/07 08:34:44;;;;;;;8.02;5.63;;;5.90;99.90;;;;;;5057589;28;20112;-61
2023/03/07 08:37:10;;;;;;;12.30;6.60;;;5.90;99.90;;;;;;5058224;28;20029;-61
2023/03/07 08:39:36;;;;;;;8.35;6.38;;;5.90;99.90;;;;;;5058183;28;20029;-62
2023/03/07 08:42:02;;;;;;;11.45;7.05;;;5.90;99.90;;;;;;5058096;28;20049;-61
2023/03/07 08:44:28;;;;;;;11.18;6.90;;;5.80;99.90;;;;;;5058072;28;20040;-62
2023/03/07 08:46:53;;;;;;;10.43;6.95;;;5.70;99.90;;;;;;5057479;28;20037;-61
2023/03/07 08:49:19;;;;;;;12.45;7.10;;;5.80;99.90;;;;;;5057285;28;20037;-62
2023/03/07 08:51:48;;;;;;;10.70;7.05;;;5.80;99.90;;;;;;5057953;28;20071;-62
2023/03/07 08:54:14;;;;;;;7.43;5.93;;;5.80;99.90;;;;;;5057501;28;20063;-62
2023/03/07 08:56:40;;;;;;;6.32;5.60;;;5.80;99.90;;;;;;5057810;28;20116;-62
2023/03/07 08:59:06;;;;;;;7.15;5.85;;;5.80;99.90;;;;;;5056919;28;20025;-61
2023/03/07 09:01:31;;;;;;;9.02;6.00;;;5.80;99.90;;;;;;5057631;28;20025;-62
2023/03/07 09:03:57;;;;;;;6.30;5.40;;;5.80;99.90;;;;;;5056913;28;20041;-62
2023/03/07 09:06:23;;;;;;;7.97;5.88;;;5.90;99.90;;;;;;5057476;28;20396;-61
2023/03/07 09:08:49;;;;;;;6.53;5.20;;;5.80;99.90;;;;;;5057924;28;20025;-61
2023/03/07 09:11:16;;;;;;;7.03;4.45;;;5.70;99.90;;;;;;5056631;28;20044;-61
2023/03/07 09:13:42;;;;;;;5.50;4.60;;;5.60;99.90;;;;;;5057422;28;20029;-62
2023/03/07 09:16:08;;;;;;;5.97;4.72;;;5.80;99.90;;;;;;5056745;28;20058;-63
2023/03/07 09:18:35;;;;;;;7.95;5.28;;;5.70;99.90;;;;;;5057117;28;20449;-61
2023/03/07 09:21:03;;;;;;;5.40;4.88;;;5.60;99.90;;;;;;5057109;28;20167;-62
2023/03/07 09:23:29;;;;;;;7.10;5.07;;;5.70;99.90;;;;;;5057205;28;20387;-61
2023/03/07 09:25:58;;;;;;;9.43;5.68;;;5.70;99.90;;;;;;5057175;28;20037;-61
2023/03/07 09:28:24;;;;;;;10.25;6.22;;;5.70;99.90;;;;;;5057121;28;20447;-64
2023/03/07 09:30:50;;;;;;;7.40;5.75;;;5.80;99.90;;;;;;5057089;28;20044;-62
2023/03/07 09:33:16;;;;;;;8.43;5.60;;;5.80;99.90;;;;;;5057510;28;20347;-63
2023/03/07 09:35:42;;;;;;;8.95;5.57;;;5.70;99.90;;;;;;5056951;28;20029;-62
2023/03/07 09:38:09;;;;;;;6.65;5.93;;;5.70;99.90;;;;;;5057273;28;20033;-62
2023/03/07 09:40:37;;;;;;;8.77;6.07;;;5.60;99.90;;;;;;5040044;28;20045;-62
2023/03/07 09:43:25;;;;;;;8.90;5.30;;;5.50;99.90;;;;;;5057228;28;20025;-62
2023/03/07 09:46:59;;;;;;;9.02;5.65;;;5.40;99.90;;;;;;5056815;28;20037;-62
2023/03/07 09:49:48;;;;;;;7.90;5.15;;;5.20;99.90;;;;;;5056357;28;20055;-62
2023/03/07 09:52:26;;;;;;;5.13;4.10;;;5.40;99.90;;;;;;5056847;28;20116;-61
2023/03/07 09:54:58;;;;;;;4.70;3.90;;;5.50;99.90;;;;;;5056647;28;20086;-61
2023/03/07 09:57:39;;;;;;;4.85;4.35;;;5.50;99.90;;;;;;5056813;28;20029;-61
2023/03/07 10:00:27;;;;;;;4.00;3.60;;;5.50;99.90;;;;;;5057074;28;20025;-61
2023/03/07 10:03:11;;;;;;;4.57;3.97;;;5.40;99.90;;;;;;5056699;28;20024;-61
2023/03/07 10:05:51;;;;;;;7.57;4.55;;;5.50;99.90;;;;;;5056687;28;20029;-60
2023/03/07 10:08:30;;;;;;;7.15;4.20;;;5.50;99.90;;;;;;5056734;28;20036;-61
2023/03/07 10:11:15;;;;;;;4.05;3.47;;;5.40;99.90;;;;;;5056684;28;20304;-60
2023/03/07 10:14:11;;;;;;;5.60;4.38;;;5.30;99.90;;;;;;5057199;28;20329;-60
2023/03/07 10:16:45;;;;;;;3.97;3.58;;;5.20;99.90;;;;;;5056854;28;20057;-61
2023/03/07 10:19:32;;;;;;;4.43;3.28;;;5.20;99.90;;;;;;5056771;28;20025;-61
2023/03/07 10:22:07;;;;;;;8.70;2.60;;;5.30;99.90;;;;;;5056634;28;20024;-61
2023/03/07 10:24:54;;;;;;;2.97;2.63;;;5.40;99.90;;;;;;5056941;28;20343;-60
2023/03/07 10:27:25;;;;;;;4.30;2.13;;;5.40;99.90;;;;;;5056610;28;20028;-61
2023/03/07 10:29:54;;;;;;;2.30;2.10;;;5.60;99.90;;;;;;5061069;28;20033;-62
2023/03/07 10:32:38;;;;;;;3.53;2.17;;;5.40;99.90;;;;;;5060566;28;20031;-62
2023/03/07 10:35:10;;;;;;;3.65;2.20;;;5.50;99.90;;;;;;5060636;28;20060;-62
2023/03/07 10:37:36;;;;;;;3.30;2.50;;;5.60;99.90;;;;;;5060539;28;20333;-62
2023/03/07 10:40:20;;;;;;;3.58;2.60;;;5.60;99.90;;;;;;5060452;28;20117;-63
2023/03/07 10:42:46;;;;;;;3.85;3.33;;;5.60;99.90;;;;;;5060417;28;20025;-62
2023/03/07 10:45:13;;;;;;;4.55;3.75;;;5.70;99.90;;;;;;5060641;28;20040;-62
2023/03/07 10:47:40;;;;;;;6.97;4.80;;;5.90;99.90;;;;;;5059634;28;20426;-62
2023/03/07 10:50:14;;;;;;;7.43;5.03;;;6.10;99.90;;;;;;5060231;28;20400;-63
2023/03/07 10:52:52;;;;;;;5.10;4.05;;;6.20;99.90;;;;;;5060249;28;20029;-63
2023/03/07 10:55:37;;;;;;;4.10;3.38;;;6.20;99.90;;;;;;5060152;28;20053;-63
2023/03/07 10:58:32;;;;;;;5.25;3.60;;;6.20;99.90;;;;;;5060126;28;20064;-61
2023/03/07 11:01:07;;;;;;;3.90;3.05;;;6.20;99.90;;;;;;5042318;28;20041;-62
2023/03/07 11:04:00;;;;;;;3.63;3.17;;;5.90;99.90;;;;;;5059109;28;20289;-62
2023/03/07 11:06:39;;;;;;;3.65;2.90;;;5.80;99.90;;;;;;5059904;28;20319;-62
2023/03/07 11:09:20;;;;;;;3.20;2.80;;;5.80;99.90;;;;;;5059106;28;20112;-62
2023/03/07 11:11:50;;;;;;;2.42;2.22;;;6.00;99.90;;;;;;5060144;28;20025;-63
2023/03/07 11:14:16;;;;;;;5.45;1.85;;;6.10;99.90;;;;;;5059836;28;20339;-64
2023/03/07 11:16:58;;;;;;;3.17;2.03;;;5.90;99.90;;;;;;5059478;28;20043;-63
2023/03/07 11:19:31;;;;;;;2.45;1.90;;;5.90;99.90;;;;;;5059589;28;20055;-63
2023/03/07 11:21:59;;;;;;;2.90;2.17;;;5.90;99.90;;;;;;5059707;28;20297;-63
2023/03/07 11:24:37;;;;;;;2.25;1.90;;;5.90;99.90;;;;;;5059534;28;20408;-63
2023/03/07 11:27:03;;;;;;;2.83;1.95;;;5.80;99.90;;;;;;5059698;28;20037;-64
2023/03/07 11:29:33;;;;;;;4.32;2.17;;;5.70;99.90;;;;;;5042101;28;20065;-63
2023/03/07 11:32:21;;;;;;;2.15;1.88;;;6.00;99.90;;;;;;5059435;28;20055;-63
2023/03/07 11:35:13;;;;;;;2.60;2.00;;;5.70;99.90;;;;;;5059781;28;20111;-67
2023/03/07 11:37:54;;;;;;;2.23;1.80;;;5.70;99.90;;;;;;5059391;28;20087;-63
2023/03/07 11:40:21;;;;;;;3.03;1.80;;;5.90;99.90;;;;;;5057604;28;20321;-64
2023/03/07 11:43:15;;;;;;;1.90;1.70;;;6.30;99.90;;;;;;5059586;28;20025;-64
2023/03/07 11:45:47;;;;;;;1.83;1.58;;;6.60;99.90;;;;;;5058499;28;20029;-64
2023/03/07 11:48:47;;;;;;;2.30;2.10;;;6.80;99.90;;;;;;5059532;28;20052;-64
2023/03/07 11:51:52;;;;;;;2.17;1.98;;;7.00;99.90;;;;;;5058456;28;20083;-66
2023/03/07 11:54:44;;;;;;;2.47;2.20;;;7.20;99.90;;;;;;5058339;28;20045;-68
2023/03/07 11:57:19;;;;;;;2.35;2.10;;;7.20;99.90;;;;;;5058486;28;20074;-64
2023/03/07 12:00:16;;;;;;;2.17;1.92;;;7.00;99.90;;;;;;5058222;28;20033;-67
2023/03/07 12:02:42;;;;;;;3.80;2.10;;;7.10;99.90;;;;;;5058968;28;20277;-66
2023/03/07 12:05:25;;;;;;;2.60;2.40;;;7.30;99.90;;;;;;5058742;28;20063;-66
2023/03/07 12:08:20;;;;;;;2.55;2.28;;;7.30;99.90;;;;;;5058031;28;20111;-71
2023/03/07 12:11:06;;;;;;;7.43;2.92;;;7.20;99.90;;;;;;5058049;28;20052;-67
2023/03/07 12:13:55;;;;;;;2.90;2.70;;;7.20;99.90;;;;;;5059123;28;20449;-70
2023/03/07 12:16:51;;;;;;;4.03;3.63;;;6.90;99.90;;;;;;5057808;28;20299;-66
2023/03/07 12:19:29;;;;;;;5.30;3.70;;;6.90;99.90;;;;;;5058586;28;20025;-67
2023/03/07 12:22:27;;;;;;;4.32;3.95;;;6.80;99.90;;;;;;5058753;28;20033;-66
2023/03/07 12:25:16;;;;;;;5.60;4.95;;;7.10;99.90;;;;;;5057690;28;20036;-65
2023/03/07 12:28:11;;;;;;;9.27;6.90;;;7.10;99.90;;;;;;5058566;28;20025;-67
2023/03/07 12:30:56;;;;;;;9.00;7.20;;;7.00;99.90;;;;;;5057883;28;20033;-65
2023/03/07 12:33:44;;;;;;;9.05;7.00;;;7.10;99.90;;;;;;5058402;28;20374;-65
2023/03/07 12:36:38;;;;;;;11.48;8.80;;;7.10;99.90;;;;;;5058149;28;20400;-65
2023/03/07 12:39:41;;;;;;;10.98;8.38;;;6.90;99.90;;;;;;5057345;28;20028;-65
2023/03/07 12:42:18;;;;;;;11.57;9.13;;;6.80;99.90;;;;;;5058126;28;20021;-65
2023/03/07 12:45:09;;;;;;;12.90;10.45;;;6.50;99.90;;;;;;5057294;28;20040;-65
2023/03/07 12:47:56;;;;;;;13.68;10.20;;;6.50;99.90;;;;;;5040727;28;20242;-66
2023/03/07 12:51:05;;;;;;;15.93;11.57;;;6.50;99.90;;;;;;5058207;28;20025;-65
2023/03/07 12:53:45;;;;;;;17.80;12.88;;;6.60;99.90;;;;;;5057297;28;20029;-66
2023/03/07 12:56:19;;;;;;;21.42;15.40;;;6.80;99.90;;;;;;5057702;28;20397;-65
2023/03/07 12:58:55;;;;;;;21.10;15.13;;;6.50;99.90;;;;;;5057850;28;20036;-64
2023/03/07 13:01:37;;;;;;;23.33;16.42;;;6.30;99.90;;;;;;5057816;28;20135;-65
2023/03/07 13:04:09;;;;;;;21.55;14.80;;;6.30;99.90;;;;;;5057827;28;20400;-66
2023/03/07 13:06:38;;;;;;;25.33;18.88;;;6.60;99.90;;;;;;5057763;28;20413;-66
2023/03/07 13:09:05;;;;;;;25.80;18.48;;;6.50;99.90;;;;;;5057643;28;20411;-66